createdAt,value
2023-02-25T00:02:09.661Z,94162.16
2023-02-25T00:04:38.049Z,94156.09
2023-02-25T00:07:06.145Z,94160.06
2023-02-25T00:09:34.316Z,94153.78
2023-02-25T00:12:02.539Z,94156.41
2023-02-25T00:14:32.004Z,94152.47
2023-02-25T00:17:01.926Z,94159.34
2023-02-25T00:19:30.289Z,94154.38
2023-02-25T00:21:58.368Z,94156.47
2023-02-25T00:24:26.492Z,94157.25
2023-02-25T00:26:54.558Z,94147.75
2023-02-25T00:29:23.158Z,94143.28
2023-02-25T00:31:52.760Z,94143.03
2023-02-25T00:34:22.192Z,94140.91
2023-02-25T00:36:50.973Z,94140.41
2023-02-25T00:39:19.214Z,94146.72
2023-02-25T00:41:47.410Z,94143.47
2023-02-25T00:44:15.828Z,94151.13
2023-02-25T00:46:44.302Z,94152.16
2023-02-25T00:49:27.016Z,94151.31
2023-02-25T00:51:59.982Z,94153.63
2023-02-25T00:54:28.281Z,94160.97
2023-02-25T00:56:56.453Z,94163.03
2023-02-25T00:59:24.541Z,94165.41
2023-02-25T01:01:52.668Z,94160.66
2023-02-25T01:04:22.100Z,94167.50
2023-02-25T01:06:50.460Z,94167.00
2023-02-25T01:09:18.556Z,94165.66
2023-02-25T01:11:47.801Z,94180.38
2023-02-25T01:14:18.822Z,94169.88
2023-02-25T01:16:47.243Z,94172.28
2023-02-25T01:19:16.710Z,94171.75
2023-02-25T01:21:46.923Z,94166.53
2023-02-25T01:24:16.090Z,94163.66
2023-02-25T01:26:45.489Z,94163.34
2023-02-25T01:29:16.169Z,94169.72
2023-02-25T01:31:45.071Z,94160.75
2023-02-25T01:34:15.030Z,94161.28
2023-02-25T01:36:43.105Z,94158.91
2023-02-25T01:39:12.998Z,94165.75
2023-02-25T01:41:41.170Z,94161.28
2023-02-25T01:44:12.085Z,94155.75
2023-02-25T01:46:40.804Z,94173.88
2023-02-25T01:49:10.884Z,94166.00
2023-02-25T01:51:39.133Z,94155.69
2023-02-25T01:54:09.277Z,94163.91
2023-02-25T01:56:39.599Z,94160.47
2023-02-25T01:59:08.556Z,94166.00
2023-02-25T02:01:38.021Z,94160.22
2023-02-25T02:04:06.636Z,94166.28
2023-02-25T02:06:36.186Z,94162.56
2023-02-25T02:09:06.061Z,94163.34
2023-02-25T02:11:34.220Z,94164.69
2023-02-25T02:14:04.611Z,94158.66
2023-02-25T02:16:42.874Z,94160.22
2023-02-25T02:19:20.101Z,94167.09
2023-02-25T02:21:55.895Z,94165.75
2023-02-25T02:24:46.764Z,94158.41
2023-02-25T02:27:15.395Z,94163.84
2023-02-25T02:30:06.122Z,94161.22
2023-02-25T02:32:37.247Z,94172.56
2023-02-25T02:35:10.059Z,94166.78
2023-02-25T02:37:41.592Z,94167.59
2023-02-25T02:40:23.742Z,94163.59
2023-02-25T02:42:58.526Z,94160.66
2023-02-25T02:45:29.553Z,94156.97
2023-02-25T02:48:01.264Z,94159.06
2023-02-25T02:50:31.573Z,94168.31
2023-02-25T02:53:00.769Z,94173.00
2023-02-25T02:55:33.557Z,94171.44
2023-02-25T02:58:04.260Z,94172.19
2023-02-25T03:00:35.785Z,94169.28
2023-02-25T03:03:06.696Z,94167.66
2023-02-25T03:05:34.984Z,94167.91
2023-02-25T03:08:06.350Z,94170.31
2023-02-25T03:10:34.554Z,94175.31
2023-02-25T03:13:02.943Z,94181.94
2023-02-25T03:15:31.242Z,94179.78
2023-02-25T03:18:00.550Z,94182.97
2023-02-25T03:20:30.974Z,94183.25
2023-02-25T03:23:00.316Z,94180.09
2023-02-25T03:25:30.896Z,94181.94
2023-02-25T03:28:01.526Z,94172.44
2023-02-25T03:30:33.072Z,94176.91
2023-02-25T03:33:02.750Z,94178.78
2023-02-25T03:35:32.252Z,94174.81
2023-02-25T03:38:01.733Z,94177.97
2023-02-25T03:40:29.945Z,94185.38
2023-02-25T03:43:01.929Z,94179.81
2023-02-25T03:45:30.626Z,94179.81
2023-02-25T03:48:00.186Z,94190.41
2023-02-25T03:50:30.300Z,94187.53
2023-02-25T03:53:04.178Z,94190.41
2023-02-25T03:55:49.479Z,94187.22
2023-02-25T03:58:17.744Z,94183.78
2023-02-25T04:00:47.106Z,94192.75
2023-02-25T04:03:15.389Z,94189.31
2023-02-25T04:05:43.555Z,94193.84
2023-02-25T04:08:16.376Z,94200.44
2023-02-25T04:10:46.292Z,94198.06
2023-02-25T04:13:16.186Z,94198.34
2023-02-25T04:15:44.377Z,94202.81
2023-02-25T04:18:13.301Z,94207.03
2023-02-25T04:20:42.033Z,94207.56
2023-02-25T04:23:14.757Z,94210.72
2023-02-25T04:25:43.402Z,94217.84
2023-02-25T04:28:11.548Z,94211.00
2023-02-25T04:30:39.663Z,94215.97
2023-02-25T04:33:07.758Z,94210.47
2023-02-25T04:35:36.099Z,94209.94
2023-02-25T04:38:04.164Z,94211.22
2023-02-25T04:40:33.921Z,94204.38
2023-02-25T04:43:02.047Z,94204.69
2023-02-25T04:45:30.085Z,94216.25
2023-02-25T04:47:58.882Z,94209.41
2023-02-25T04:50:27.121Z,94200.44
2023-02-25T04:52:55.183Z,94207.31
2023-02-25T04:55:23.268Z,94202.81
2023-02-25T04:57:52.729Z,94212.06
2023-02-25T05:00:24.283Z,94208.38
2023-02-25T05:02:52.451Z,94213.41
2023-02-25T05:05:20.592Z,94211.56
2023-02-25T05:07:48.682Z,94215.78
2023-02-25T05:10:16.818Z,94216.03
2023-02-25T05:12:44.921Z,94214.44
2023-02-25T05:15:14.920Z,94210.53
2023-02-25T05:17:43.043Z,94222.66
2023-02-25T05:20:13.272Z,94216.84
2023-02-25T05:22:41.553Z,94214.19
2023-02-25T05:25:10.532Z,94223.69
2023-02-25T05:27:38.607Z,94221.31
2023-02-25T05:30:08.088Z,94225.78
2023-02-25T05:32:38.824Z,94210.75
2023-02-25T05:35:08.905Z,94223.94
2023-02-25T05:37:37.045Z,94218.41
2023-02-25T05:40:07.236Z,94229.75
2023-02-25T05:42:35.593Z,94224.72
2023-02-25T05:45:03.724Z,94215.25
2023-02-25T05:47:31.978Z,94231.03
2023-02-25T05:50:01.488Z,94230.00
2023-02-25T05:52:29.556Z,94229.44
2023-02-25T05:54:57.620Z,94224.19
2023-02-25T05:57:25.928Z,94225.78
2023-02-25T05:59:54.001Z,94238.69
2023-02-25T06:02:22.117Z,94238.69
2023-02-25T06:04:50.209Z,94230.00
2023-02-25T06:07:19.677Z,94239.75
2023-02-25T06:09:48.264Z,94249.22
2023-02-25T06:12:16.302Z,94244.75
2023-02-25T06:14:44.450Z,94254.75
2023-02-25T06:17:12.559Z,94258.19
2023-02-25T06:19:40.614Z,94262.41
2023-02-25T06:22:08.664Z,94260.25
2023-02-25T06:24:38.423Z,94268.72
2023-02-25T06:27:06.474Z,94270.56
2023-02-25T06:29:34.545Z,94268.16
2023-02-25T06:32:02.663Z,94278.44
2023-02-25T06:34:33.285Z,94292.19
2023-02-25T06:37:01.361Z,94289.22
2023-02-25T06:39:29.393Z,94290.28
2023-02-25T06:41:58.868Z,94299.53
2023-02-25T06:44:27.162Z,94288.19
2023-02-25T06:46:55.969Z,94295.59
2023-02-25T06:49:24.100Z,94301.13
2023-02-25T06:51:52.503Z,94309.81
2023-02-25T06:54:20.679Z,94309.03
2023-02-25T06:56:48.791Z,94322.44
2023-02-25T06:59:18.326Z,94335.84
2023-02-25T07:01:46.404Z,94327.69
2023-02-25T07:04:16.061Z,94324.81
2023-02-25T07:06:44.600Z,94332.19
2023-02-25T07:09:12.664Z,94322.19
2023-02-25T07:11:40.778Z,94327.69
2023-02-25T07:14:08.889Z,94326.91
2023-02-25T07:16:38.377Z,94326.59
2023-02-25T07:19:06.882Z,94327.66
2023-02-25T07:21:35.103Z,94326.88
2023-02-25T07:24:03.160Z,94332.06
2023-02-25T07:26:31.229Z,94328.88
2023-02-25T07:28:59.498Z,94328.09
2023-02-25T07:31:28.631Z,94337.56
2023-02-25T07:34:03.284Z,94336.25
2023-02-25T07:36:33.157Z,94332.31
2023-02-25T07:39:02.072Z,94333.88
2023-02-25T07:41:30.281Z,94338.63
2023-02-25T07:44:03.258Z,94337.09
2023-02-25T07:46:31.764Z,94346.81
2023-02-25T07:49:01.315Z,94342.59
2023-02-25T07:51:29.387Z,94340.03
2023-02-25T07:53:57.710Z,94341.31
2023-02-25T07:56:26.640Z,94342.03
2023-02-25T07:58:54.737Z,94353.09
2023-02-25T08:01:24.884Z,94354.69
2023-02-25T08:03:53.464Z,94354.94
2023-02-25T08:06:22.909Z,94357.59
2023-02-25T08:08:52.279Z,94355.78
2023-02-25T08:11:21.267Z,94361.59
2023-02-25T08:13:49.709Z,94355.28
2023-02-25T08:16:19.088Z,94362.63
2023-02-25T08:18:47.269Z,94355.53
2023-02-25T08:21:18.039Z,94354.47
2023-02-25T08:23:48.496Z,94357.69
2023-02-25T08:26:17.610Z,94355.56
2023-02-25T08:28:46.242Z,94362.19
2023-02-25T08:31:15.052Z,94359.06
2023-02-25T08:33:45.114Z,94362.25
2023-02-25T08:36:14.419Z,94359.06
2023-02-25T08:38:42.613Z,94369.03
2023-02-25T08:41:12.392Z,94375.91
2023-02-25T08:43:40.972Z,94372.47
2023-02-25T08:46:09.377Z,94375.34
2023-02-25T08:48:37.638Z,94371.13
2023-02-25T08:51:08.603Z,94371.91
2023-02-25T08:53:38.253Z,94376.91
2023-02-25T08:56:06.789Z,94367.66
2023-02-25T08:58:36.324Z,94373.25
2023-02-25T09:01:08.837Z,94378.00
2023-02-25T09:03:37.121Z,94384.28
2023-02-25T09:06:05.769Z,94389.81
2023-02-25T09:08:34.117Z,94384.06
2023-02-25T09:11:02.164Z,94390.19
2023-02-25T09:13:30.664Z,94391.47
2023-02-25T09:16:00.154Z,94396.19
2023-02-25T09:18:28.349Z,94386.44
2023-02-25T09:20:56.440Z,94402.81
2023-02-25T09:23:24.783Z,94390.91
2023-02-25T09:25:52.899Z,94404.56
2023-02-25T09:28:22.878Z,94398.22
2023-02-25T09:30:51.674Z,94414.94
2023-02-25T09:33:21.118Z,94414.13
2023-02-25T09:35:49.230Z,94414.94
2023-02-25T09:38:17.631Z,94415.50
2023-02-25T09:40:46.854Z,94421.56
2023-02-25T09:43:20.704Z,94425.00
2023-02-25T09:45:49.344Z,94428.41
2023-02-25T09:48:21.154Z,94422.72
2023-02-25T09:50:52.132Z,94427.25
2023-02-25T09:53:21.517Z,94424.59
2023-02-25T09:55:50.844Z,94425.97
2023-02-25T09:58:23.085Z,94422.28
2023-02-25T10:00:55.594Z,94412.34
2023-02-25T10:03:53.423Z,94424.47
2023-02-25T10:06:23.971Z,94421.81
2023-02-25T10:08:55.563Z,94430.44
2023-02-25T10:11:30.676Z,94432.06
2023-02-25T10:14:03.561Z,94428.91
2023-02-25T10:16:39.044Z,94432.81
2023-02-25T10:19:13.353Z,94433.81
2023-02-25T10:21:48.748Z,94438.41
2023-02-25T10:24:25.897Z,94447.88
2023-02-25T10:26:55.901Z,94447.34
2023-02-25T10:29:28.344Z,94452.34
2023-02-25T10:31:59.268Z,94457.22
2023-02-25T10:34:29.642Z,94458.13
2023-02-25T10:36:59.578Z,94464.44
2023-02-25T10:39:28.508Z,94475.13
2023-02-25T10:41:56.659Z,94491.63
2023-02-25T10:44:25.096Z,94497.69
2023-02-25T10:46:55.703Z,94504.34
2023-02-25T10:49:25.655Z,94506.19
2023-02-25T10:52:03.360Z,94514.56
2023-02-25T10:54:32.476Z,94508.97
2023-02-25T10:57:02.320Z,94511.69
2023-02-25T10:59:32.049Z,94526.53
2023-02-25T11:02:00.898Z,94516.47
2023-02-25T11:04:35.804Z,94524.94
2023-02-25T11:07:08.633Z,94518.13
2023-02-25T11:09:37.135Z,94519.44
2023-02-25T11:12:16.777Z,94526.75
2023-02-25T11:14:44.927Z,94524.59
2023-02-25T11:17:15.685Z,94526.84
2023-02-25T11:19:44.982Z,94528.81
2023-02-25T11:22:19.872Z,94539.63
2023-02-25T11:24:56.322Z,94530.53
2023-02-25T11:27:28.286Z,94541.59
2023-02-25T11:29:56.409Z,94541.13
2023-02-25T11:32:25.389Z,94545.25
2023-02-25T11:34:56.427Z,94547.56
2023-02-25T11:37:36.097Z,94552.34
2023-02-25T11:40:08.010Z,94554.16
2023-02-25T11:42:36.100Z,94560.41
2023-02-25T11:45:05.217Z,94559.28
2023-02-25T11:47:33.638Z,94567.09
2023-02-25T11:50:21.084Z,94564.91
2023-02-25T11:52:53.149Z,94572.28
2023-02-25T11:55:26.293Z,94570.63
2023-02-25T11:58:03.600Z,94564.63
2023-02-25T12:00:34.985Z,94574.63
2023-02-25T12:03:33.766Z,94577.38
2023-02-25T12:06:10.198Z,94574.94
2023-02-25T12:08:51.444Z,94580.81
2023-02-25T12:11:47.657Z,94574.56
2023-02-25T12:15:12.498Z,94573.97
2023-02-25T12:17:52.764Z,94580.13
2023-02-25T12:20:54.146Z,94580.84
2023-02-25T12:23:53.704Z,94582.84
2023-02-25T12:26:24.490Z,94579.63
2023-02-25T12:29:19.412Z,94576.81
2023-02-25T12:32:12.375Z,94573.13
2023-02-25T12:35:07.215Z,94576.44
2023-02-25T12:37:43.508Z,94574.06
2023-02-25T12:40:28.765Z,94573.88
2023-02-25T12:43:02.425Z,94565.00
2023-02-25T12:45:48.612Z,94571.38
2023-02-25T12:48:40.184Z,94570.63
2023-02-25T12:51:48.640Z,94566.53
2023-02-25T12:54:28.723Z,94575.44
2023-02-25T12:57:05.104Z,94565.31
2023-02-25T12:59:55.829Z,94562.34
2023-02-25T13:02:49.464Z,94563.47
2023-02-25T13:05:37.993Z,94564.03
2023-02-25T13:08:25.907Z,94556.91
2023-02-25T13:10:58.317Z,94570.81
2023-02-25T13:13:47.320Z,94572.09
2023-02-25T13:16:22.439Z,94577.75
2023-02-25T13:18:53.745Z,94570.88
2023-02-25T13:21:34.044Z,94571.66
2023-02-25T13:24:10.515Z,94570.78
2023-02-25T13:26:46.777Z,94569.44
2023-02-25T13:29:28.007Z,94580.03
2023-02-25T13:32:05.535Z,94576.28
2023-02-25T13:34:38.318Z,94581.72
2023-02-25T13:37:19.313Z,94575.81
2023-02-25T13:40:07.320Z,94567.66
2023-02-25T13:43:00.863Z,94570.03
2023-02-25T13:45:40.083Z,94570.00
2023-02-25T13:48:42.068Z,94562.22
2023-02-25T13:51:18.058Z,94562.16
2023-02-25T13:54:07.590Z,94570.13
2023-02-25T13:56:53.409Z,94573.09
2023-02-25T13:59:38.325Z,94580.19
2023-02-25T14:02:18.162Z,94576.25
2023-02-25T14:05:08.222Z,94581.59
2023-02-25T14:08:12.235Z,94574.81
2023-02-25T14:10:49.284Z,94572.09
2023-02-25T14:13:49.659Z,94574.38
2023-02-25T14:16:38.624Z,94575.34
2023-02-25T14:19:19.557Z,94578.94
2023-02-25T14:22:06.175Z,94574.66
2023-02-25T14:24:36.200Z,94587.09
2023-02-25T14:27:37.435Z,94616.41
2023-02-25T14:30:16.729Z,94610.66
2023-02-25T14:32:50.613Z,94619.84
2023-02-25T14:35:36.372Z,94632.69
2023-02-25T14:38:08.631Z,94622.50
2023-02-25T14:40:41.573Z,94621.56
2023-02-25T14:43:29.878Z,94633.91
2023-02-25T14:46:01.761Z,94637.16
2023-02-25T14:48:33.604Z,94639.78
2023-02-25T14:51:22.117Z,94632.38
2023-02-25T14:54:07.723Z,94646.72
2023-02-25T14:56:57.041Z,94641.91
2023-02-25T14:59:51.106Z,94650.78
2023-02-25T15:02:41.015Z,94657.66
2023-02-25T15:05:29.770Z,94665.56
2023-02-25T15:08:23.535Z,94659.47
2023-02-25T15:10:58.785Z,94669.91
2023-02-25T15:14:01.837Z,94673.56
2023-02-25T15:16:45.844Z,94662.56
2023-02-25T15:19:52.277Z,94680.53
2023-02-25T15:22:24.963Z,94684.75
2023-02-25T15:24:55.451Z,94689.22
2023-02-25T15:27:44.609Z,94695.03
2023-02-25T15:30:14.378Z,94693.34
2023-02-25T15:32:58.896Z,94696.19
2023-02-25T15:35:53.890Z,94702.19
2023-02-25T15:38:22.651Z,94708.47
2023-02-25T15:40:53.749Z,94708.91
2023-02-25T15:43:44.938Z,94713.06
2023-02-25T15:46:45.436Z,94722.88
2023-02-25T15:49:24.557Z,94718.66
2023-02-25T15:51:53.654Z,94710.22
2023-02-25T15:54:46.737Z,94714.91
2023-02-25T15:57:37.331Z,94722.56
2023-02-25T16:00:29.215Z,94721.19
2023-02-25T16:03:01.670Z,94724.63
2023-02-25T16:05:33.659Z,94732.97
2023-02-25T16:08:14.284Z,94730.47
2023-02-25T16:10:43.633Z,94727.72
2023-02-25T16:13:16.317Z,94733.56
2023-02-25T16:15:45.856Z,94749.81
2023-02-25T16:18:16.956Z,94754.81
2023-02-25T16:20:47.429Z,94759.63
2023-02-25T16:23:15.931Z,94762.59
2023-02-25T16:25:53.900Z,94758.03
2023-02-25T16:28:27.626Z,94766.78
2023-02-25T16:30:57.414Z,94774.31
2023-02-25T16:33:28.621Z,94783.00
2023-02-25T16:36:07.481Z,94786.28
2023-02-25T16:38:40.222Z,94798.41
2023-02-25T16:41:08.674Z,94795.66
2023-02-25T16:43:39.412Z,94806.50
2023-02-25T16:46:08.133Z,94808.31
2023-02-25T16:48:38.064Z,94804.53
2023-02-25T16:51:09.972Z,94811.28
2023-02-25T16:53:38.723Z,94819.16
2023-02-25T16:56:08.545Z,94817.44
2023-02-25T16:58:38.110Z,94825.19
2023-02-25T17:01:07.701Z,94827.84
2023-02-25T17:03:43.178Z,94834.69
2023-02-25T17:06:16.615Z,94840.41
2023-02-25T17:08:45.374Z,94848.31
2023-02-25T17:11:15.589Z,94850.38
2023-02-25T17:13:45.030Z,94843.63
2023-02-25T17:16:20.949Z,94842.97
2023-02-25T17:18:50.483Z,94849.91
2023-02-25T17:21:21.234Z,94854.81
2023-02-25T17:23:49.561Z,94860.41
2023-02-25T17:26:17.755Z,94867.03
2023-02-25T17:28:47.795Z,94862.69
2023-02-25T17:31:18.154Z,94871.44
2023-02-25T17:33:50.303Z,94876.38
2023-02-25T17:36:19.173Z,94874.94
2023-02-25T17:38:47.513Z,94875.72
2023-02-25T17:41:16.991Z,94884.25
2023-02-25T17:43:45.121Z,94882.75
2023-02-25T17:46:24.202Z,94888.47
2023-02-25T17:48:53.693Z,94884.38
2023-02-25T17:51:29.084Z,94904.28
2023-02-25T17:53:57.790Z,94913.72
2023-02-25T17:56:28.089Z,94911.25
2023-02-25T17:59:00.436Z,94912.72
2023-02-25T18:01:31.036Z,94900.91
2023-02-25T18:04:00.047Z,94904.41
2023-02-25T18:06:38.741Z,94913.44
2023-02-25T18:09:07.149Z,94912.06
2023-02-25T18:11:35.614Z,94911.81
2023-02-25T18:14:05.103Z,94910.09
2023-02-25T18:16:41.914Z,94918.25
2023-02-25T18:19:12.876Z,94916.22
2023-02-25T18:21:41.752Z,94920.59
2023-02-25T18:24:10.070Z,94924.22
2023-02-25T18:26:38.617Z,94916.72
2023-02-25T18:29:06.789Z,94920.28
2023-02-25T18:31:35.070Z,94930.72
2023-02-25T18:34:04.800Z,94928.38
2023-02-25T18:36:32.904Z,94932.38
2023-02-25T18:39:03.501Z,94938.66
2023-02-25T18:41:33.647Z,94941.50
2023-02-25T18:44:02.388Z,94940.06
2023-02-25T18:46:30.979Z,94948.94
2023-02-25T18:48:59.266Z,94947.78
2023-02-25T18:51:29.136Z,94957.25
2023-02-25T18:53:57.228Z,94954.19
2023-02-25T18:56:26.348Z,94955.00
2023-02-25T18:58:56.551Z,94974.38
2023-02-25T19:01:26.067Z,94976.56
2023-02-25T19:03:59.353Z,94976.91
2023-02-25T19:06:29.332Z,94977.38
2023-02-25T19:08:57.404Z,94978.81
2023-02-25T19:11:27.101Z,94991.38
2023-02-25T19:13:55.638Z,94985.06
2023-02-25T19:16:24.156Z,94986.03
2023-02-25T19:18:52.635Z,94995.16
2023-02-25T19:21:21.421Z,95002.03
2023-02-25T19:23:52.178Z,95002.41
2023-02-25T19:26:20.309Z,94999.63
2023-02-25T19:28:48.700Z,94996.84
2023-02-25T19:31:17.912Z,95001.72
2023-02-25T19:33:46.100Z,95008.34
2023-02-25T19:36:14.211Z,95006.16
2023-02-25T19:38:42.325Z,95004.91
2023-02-25T19:41:13.767Z,95015.00
2023-02-25T19:43:42.558Z,95020.84
2023-02-25T19:46:10.701Z,95024.25
2023-02-25T19:48:38.761Z,95028.50
2023-02-25T19:51:07.801Z,95028.56
2023-02-25T19:53:36.168Z,95028.16
2023-02-25T19:56:05.450Z,95035.59
2023-02-25T19:58:34.949Z,95039.44
2023-02-25T20:01:05.139Z,95032.38
2023-02-25T20:03:33.515Z,95029.56
2023-02-25T20:06:06.845Z,95032.59
2023-02-25T20:08:36.253Z,95033.13
2023-02-25T20:11:04.684Z,95037.22
2023-02-25T20:13:34.625Z,95034.41
2023-02-25T20:16:03.358Z,95038.22
2023-02-25T20:18:31.537Z,95048.88
2023-02-25T20:20:59.732Z,95039.88
2023-02-25T20:23:28.222Z,95040.09
2023-02-25T20:26:04.345Z,95052.19
2023-02-25T20:28:32.653Z,95051.34
2023-02-25T20:31:06.369Z,95052.50
2023-02-25T20:33:34.764Z,95051.06
2023-02-25T20:36:03.647Z,95055.22
2023-02-25T20:38:33.689Z,95054.44
2023-02-25T20:41:02.060Z,95064.78
2023-02-25T20:43:30.388Z,95059.28
2023-02-25T20:45:58.703Z,95069.16
2023-02-25T20:48:29.673Z,95060.16
2023-02-25T20:50:58.586Z,95065.00
2023-02-25T20:53:26.973Z,95070.97
2023-02-25T20:55:55.314Z,95073.19
2023-02-25T20:58:23.416Z,95085.13
2023-02-25T21:00:51.568Z,95106.53
2023-02-25T21:03:19.777Z,95113.38
2023-02-25T21:05:49.591Z,95114.06
2023-02-25T21:08:17.772Z,95119.03
2023-02-25T21:10:45.916Z,95126.13
2023-02-25T21:13:15.816Z,95125.31
2023-02-25T21:15:44.087Z,95128.13
2023-02-25T21:18:12.452Z,95125.38
2023-02-25T21:20:40.575Z,95130.38
2023-02-25T21:23:11.368Z,95126.91
2023-02-25T21:25:39.567Z,95127.44
2023-02-25T21:28:08.053Z,95125.38
2023-02-25T21:30:36.524Z,95120.50
2023-02-25T21:33:06.371Z,95126.34
2023-02-25T21:35:36.083Z,95121.72
2023-02-25T21:38:04.196Z,95123.72
2023-02-25T21:40:34.260Z,95116.72
2023-02-25T21:43:02.363Z,95126.78
2023-02-25T21:45:30.761Z,95131.69
2023-02-25T21:47:58.885Z,95132.03
2023-02-25T21:50:28.123Z,95130.84
2023-02-25T21:52:56.534Z,95138.53
2023-02-25T21:55:25.404Z,95137.81
2023-02-25T21:57:54.885Z,95139.78
2023-02-25T22:00:24.189Z,95146.19
2023-02-25T22:02:52.371Z,95148.22
2023-02-25T22:05:20.465Z,95146.03
2023-02-25T22:07:48.639Z,95150.03
2023-02-25T22:10:16.910Z,95156.88
2023-02-25T22:12:45.213Z,95155.28
2023-02-25T22:15:14.698Z,95166.00
2023-02-25T22:17:42.922Z,95157.59
2023-02-25T22:20:12.580Z,95160.44
2023-02-25T22:22:40.663Z,95161.03
2023-02-25T22:25:09.262Z,95156.31
2023-02-25T22:27:37.645Z,95163.81
2023-02-25T22:30:06.503Z,95161.00
2023-02-25T22:32:37.711Z,95164.63
2023-02-25T22:35:07.736Z,95167.22
2023-02-25T22:37:35.867Z,95172.03
2023-02-25T22:40:04.505Z,95169.25
2023-02-25T22:42:32.573Z,95165.84
2023-02-25T22:45:01.245Z,95164.63
2023-02-25T22:47:29.377Z,95162.19
2023-02-25T22:49:58.854Z,95172.91
2023-02-25T22:52:27.187Z,95177.53
2023-02-25T22:54:55.329Z,95172.06
2023-02-25T22:57:23.847Z,95180.75
2023-02-25T22:59:52.046Z,95180.53
2023-02-25T23:02:20.252Z,95186.38
2023-02-25T23:04:48.295Z,95186.22
2023-02-25T23:07:18.094Z,95182.78
2023-02-25T23:09:46.452Z,95186.59
2023-02-25T23:12:14.546Z,95189.63
2023-02-25T23:14:43.421Z,95192.22
2023-02-25T23:17:11.512Z,95187.16
2023-02-25T23:19:40.229Z,95191.41
2023-02-25T23:22:09.676Z,95200.66
2023-02-25T23:24:39.103Z,95202.28
2023-02-25T23:27:07.848Z,95201.66
2023-02-25T23:29:35.935Z,95201.06
2023-02-25T23:32:04.493Z,95210.31
2023-02-25T23:34:33.094Z,95204.25
2023-02-25T23:37:01.158Z,95203.66
2023-02-25T23:39:29.365Z,95213.94
2023-02-25T23:41:59.394Z,95212.72
2023-02-25T23:44:27.717Z,95208.28
2023-02-25T23:46:56.142Z,95220.16
2023-02-25T23:49:24.359Z,95220.16
2023-02-25T23:51:52.457Z,95221.19
2023-02-25T23:54:21.207Z,95220.19
2023-02-25T23:56:49.262Z,95230.91
2023-02-25T23:59:19.054Z,95233.50
